Latest Weather Observations for Cerberus

IDV60801

Issued at 9:12 pm EDT Sunday 16 December 2018 (issued every 10 minutes, with the page automatically refreshed every 10 minutes)

About weather observations | Map of weather stations | Latest weather observations for VIC | Other Formats
Station Details ID: 086361 Name: CERBERUS Lat: -38.36 Lon: 145.18 Height: 12.69 m
Data from the previous 72 hours. | See also: Recent months at Cerberus
Date/Time
EDT
Temp
°C
App
Temp
°C
Dew
Point
°C
Rel
Hum
%
Delta-T
°C
Wind Press
QNH
hPa
Press
MSL
hPa
Rain since
9am
mm
Dir  Spd
km/h
Gust
km/h
Spd
kts
Gust
kts
16/09:00pm 17.4 17.3 15.0 86 1.4 SW 9 13 5 7 1006.8 1006.8 0.0
16/08:30pm 17.9 17.8 15.0 83 1.7 SSW 9 13 5 7 1006.6 1006.6 0.0
16/08:00pm 18.4 18.3 14.9 80 2.0 SW 9 15 5 8 1006.5 1006.5 0.0
16/07:30pm 19.3 18.8 15.0 76 2.5 SW 11 17 6 9 1006.2 1006.2 0.0
16/07:00pm 21.6 20.5 13.0 58 4.9 W 11 20 6 11 1005.9 1005.9 0.0
16/06:30pm 22.0 20.3 12.5 54 5.4 NNW 13 19 7 10 1005.4 1005.4 0.0
16/06:00pm 22.3 20.5 13.4 57 5.2 NW 15 24 8 13 1005.0 1005.0 0.0
16/05:30pm 22.1 20.8 13.7 59 4.9 NNW 13 24 7 13 1004.9 1004.9 0.0
16/05:00pm 22.7 19.8 12.3 52 5.9 NW 19 32 10 17 1004.7 1004.7 0.0
16/04:30pm 22.7 20.0 12.9 54 5.6 NW 19 30 10 16 1004.6 1004.6 0.0
16/04:00pm 22.3 19.5 11.4 50 6.1 NW 17 24 9 13 1004.6 1004.6 0.0
16/03:30pm 21.9 19.1 12.7 56 5.2 NW 19 32 10 17 1004.7 1004.7 0.0
16/03:00pm 21.0 19.5 14.2 65 4.0 N 15 32 8 17 1004.7 1004.7 0.0
16/02:30pm 19.8 19.4 14.0 69 3.3 NE 9 15 5 8 1005.0 1005.0 0.0
16/02:00pm 18.5 17.8 13.1 71 3.1 NNE 9 17 5 9 1005.0 1005.0 0.0
16/01:30pm 21.1 18.8 11.7 55 5.2 NNW 15 22 8 12 1005.0 1005.0 0.0
16/01:00pm 22.6 20.2 12.8 54 5.6 NW 17 26 9 14 1005.0 1005.0 0.0
16/12:30pm 21.5 19.5 12.6 57 5.0 NNW 15 26 8 14 1005.0 1005.0 0.0
16/12:00pm 21.4 19.7 12.3 56 5.1 NNW 13 22 7 12 1005.1 1005.1 0.0
16/11:30am 21.1 19.7 13.5 62 4.4 NW 13 26 7 14 1005.2 1005.2 0.0
16/11:00am 21.4 19.3 13.6 61 4.5 NNW 17 30 9 16 1005.1 1005.1 0.0
16/10:30am 20.7 18.9 13.2 62 4.3 N 15 24 8 13 1004.9 1004.9 0.0
16/10:00am 20.6 19.6 14.5 68 3.6 NNW 13 20 7 11 1005.0 1005.0 0.0
16/09:30am 19.1 17.6 13.1 68 3.4 N 13 22 7 12 1005.1 1005.1 0.0
16/09:00am 19.5 18.8 14.3 72 3.0 NNW 11 24 6 13 1005.2 1005.2 17.2
16/08:30am 18.8 19.4 15.9 83 1.7 N 7 11 4 6 1005.1 1005.1 17.2
16/08:00am 17.6 19.1 15.6 88 1.2 WNW 2 4 1 2 1005.1 1005.1 17.2
16/07:30am 16.4 18.0 14.9 91 0.9 CALM 0 0 0 0 1004.9 1004.9 17.2
16/07:00am 15.5 16.8 14.0 91 0.8 CALM 0 0 0 0 1004.6 1004.6 17.2
16/06:30am 14.3 15.2 12.9 91 0.8 CALM 0 0 0 0 1004.3 1004.3 17.2
16/06:00am 14.6 14.8 13.1 91 0.8 WNW 4 4 2 2 1004.0 1004.0 17.2
16/05:30am 15.0 15.3 13.4 90 0.9 WNW 4 6 2 3 1003.7 1003.7 17.2
16/05:00am 15.0 15.7 13.4 90 0.9 SW 2 6 1 3 1003.5 1003.5 17.2
16/04:30am 15.2 15.9 13.4 89 1.0 SW 2 6 1 3 1003.2 1003.2 17.2
16/04:00am 15.6 16.4 13.8 89 1.0 SW 2 4 1 2 1002.8 1002.8 17.2
16/03:30am 15.7 15.2 13.7 88 1.1 S 9 19 5 10 1002.6 1002.6 17.0
16/03:00am 17.7 17.6 15.9 89 1.1 NW 11 17 6 9 1003.4 1003.4 9.8
16/02:30am 17.7 18.6 16.0 90 1.0 NW 6 9 3 5 1003.7 1003.7 9.8
16/02:00am 17.6 18.8 15.8 89 1.1 N 4 6 2 3 1004.3 1004.3 9.8
16/01:30am 17.5 18.2 15.7 89 1.1 N 6 9 3 5 1004.2 1004.2 9.8
16/01:00am 17.7 19.3 15.9 89 1.1 E 2 4 1 2 1004.6 1004.6 9.8
16/12:30am 18.0 18.9 16.0 88 1.2 SE 6 9 3 5 1004.3 1004.3 9.8
16/12:00am 17.6 18.6 15.4 87 1.3 ESE 4 4 2 2 1004.8 1004.8 9.8
 
Date/Time
EDT
Temp
°C
App
Temp
°C
Dew
Point
°C
Rel
Hum
%
Delta-T
°C
Wind Press
QNH
hPa
Press
MSL
hPa
Rain since
9am
mm
Dir  Spd
km/h
Gust
km/h
Spd
kts
Gust
kts
15/11:30pm 17.9 18.6 15.7 87 1.3 ESE 6 7 3 4 1005.1 1005.1 9.8
15/11:00pm 17.5 18.1 15.3 87 1.3 WNW 6 7 3 4 1004.3 1004.3 9.8
15/10:30pm 17.5 18.0 15.1 86 1.4 NW 6 7 3 4 1004.5 1004.5 9.8
15/10:00pm 18.2 20.0 15.5 84 1.6 CALM 0 2 0 1 1004.9 1004.9 9.8
15/09:30pm 18.4 19.8 15.3 82 1.8 NNW 2 6 1 3 1004.9 1004.9 9.8
15/09:00pm 19.0 19.6 15.3 79 2.2 SE 6 11 3 6 1004.5 1004.5 9.8
15/08:30pm 20.0 20.4 15.2 74 2.8 ESE 7 13 4 7 1004.3 1004.3 9.8
15/08:00pm 22.2 22.3 13.8 59 4.9 SSE 6 11 3 6 1003.7 1003.7 9.8
15/07:30pm 23.4 23.0 12.4 50 6.3 W 6 9 3 5 1003.1 1003.1 9.8
15/07:00pm 23.9 24.1 13.2 51 6.2 W 4 6 2 3 1003.4 1003.4 9.8
15/06:30pm 23.6 23.0 12.3 49 6.4 WNW 7 11 4 6 1002.9 1002.9 9.6
15/06:00pm 23.6 23.5 13.8 54 5.8 WNW 7 15 4 8 1002.7 1002.7 9.6
15/05:30pm 22.4 23.3 16.7 70 3.5 WNW 7 11 4 6 1003.1 1003.1 9.6
15/05:00pm 20.9 21.8 16.7 77 2.6 W 7 13 4 7 1003.5 1003.5 9.6
15/04:30pm 19.1 19.9 16.3 84 1.7 SSE 7 11 4 6 1003.9 1003.9 9.6
15/04:00pm 18.2 18.3 15.6 85 1.5 WNW 9 19 5 10 1003.6 1003.6 9.4
15/03:30pm 17.3 16.3 14.6 84 1.6 NNW 13 24 7 13 1004.4 1004.4 8.8
15/03:08pm 18.7 16.2 15.2 80 2.1 NW 22 44 12 24 1003.8 1003.8 8.6
15/03:00pm 19.4 18.7 15.5 78 2.3 NNW 13 26 7 14 1004.3 1004.3 6.4
15/02:30pm 22.6 22.6 17.1 71 3.4 WNW 13 22 7 12 1002.7 1002.7 0.0
15/02:00pm 24.5 25.8 17.5 65 4.4 WNW 7 13 4 7 1002.6 1002.6 0.0
15/01:30pm 25.8 26.8 16.4 56 5.8 NNE 6 13 3 7 1002.8 1002.8 0.0
15/01:00pm 25.6 26.5 16.5 57 5.6 NNE 7 17 4 9 1003.0 1003.0 0.0
15/12:30pm 25.1 26.3 17.3 62 4.9 NNE 7 13 4 7 1003.6 1003.6 0.0
15/12:00pm 24.9 26.0 17.9 65 4.4 ENE 9 17 5 9 1004.1 1004.1 0.0
15/11:30am 24.3 25.8 18.9 72 3.4 ESE 9 13 5 7 1003.9 1003.9 0.0
15/11:00am 23.3 24.6 18.4 74 3.1 SE 9 17 5 9 1004.2 1004.2 0.0
15/10:30am 22.8 23.9 18.1 75 2.9 ESE 9 17 5 9 1004.3 1004.3 0.0
15/10:00am 22.1 22.8 17.9 77 2.6 ESE 11 17 6 9 1004.7 1004.7 0.0
15/09:30am 21.6 21.9 18.0 80 2.2 ESE 13 20 7 11 1004.7 1004.7 0.0
15/09:00am 20.7 21.4 17.9 84 1.7 ESE 11 19 6 10 1005.1 1005.1 7.4
15/08:30am 20.1 20.8 17.9 87 1.4 SE 11 19 6 10 1005.3 1005.3 7.4
15/08:00am 19.4 19.9 17.4 88 1.2 SE 11 19 6 10 1005.5 1005.5 7.4
15/07:30am 19.0 20.1 17.1 89 1.2 SE 7 13 4 7 1005.2 1005.2 7.4
15/07:00am 18.8 19.8 16.9 89 1.2 SSE 7 11 4 6 1004.5 1004.5 7.4
15/06:30am 18.7 19.3 16.7 88 1.2 SE 9 15 5 8 1004.8 1004.8 7.4
15/06:00am 18.9 19.9 16.9 88 1.2 SE 7 13 4 7 1004.7 1004.7 7.4
15/05:30am 19.4 20.2 17.2 87 1.3 SE 9 17 5 9 1004.8 1004.8 7.4
15/05:00am 19.4 20.1 17.0 86 1.5 ESE 9 17 5 9 1004.9 1004.9 7.4
15/04:30am 19.4 20.1 17.0 86 1.5 SE 9 15 5 8 1004.9 1004.9 7.4
15/04:00am 19.7 20.0 17.1 85 1.6 SE 11 17 6 9 1004.8 1004.8 7.4
15/03:30am 19.7 20.9 17.3 86 1.5 ESE 7 11 4 6 1004.7 1004.7 7.4
15/03:00am 19.6 20.7 17.2 86 1.5 SE 7 11 4 6 1004.6 1004.6 7.4
15/02:30am 19.7 20.1 17.3 86 1.5 ESE 11 19 6 10 1004.8 1004.8 7.4
15/02:00am 19.7 19.8 17.5 87 1.4 ESE 13 20 7 11 1005.1 1005.1 7.4
15/01:30am 19.2 19.2 17.2 88 1.2 SE 13 24 7 13 1005.4 1005.4 7.4
15/01:00am 19.1 19.1 17.1 88 1.2 SE 13 22 7 12 1005.3 1005.3 7.4
15/12:30am 19.4 18.7 17.4 88 1.2 SE 17 26 9 14 1005.7 1005.7 7.4
15/12:00am 19.4 19.4 17.2 87 1.3 SE 13 24 7 13 1005.9 1005.9 7.4
 
Date/Time
EDT
Temp
°C
App
Temp
°C
Dew
Point
°C
Rel
Hum
%
Delta-T
°C
Wind Press
QNH
hPa
Press
MSL
hPa
Rain since
9am
mm
Dir  Spd
km/h
Gust
km/h
Spd
kts
Gust
kts
14/11:30pm 19.8 19.6 17.6 87 1.3 ESE 15 30 8 16 1006.2 1006.2 7.4
14/11:00pm 20.0 20.3 17.8 87 1.4 ESE 13 22 7 12 1006.2 1006.2 7.4
14/10:30pm 19.8 19.1 17.4 86 1.5 SE 17 26 9 14 1005.9 1005.9 7.4
14/10:00pm 19.8 19.9 17.4 86 1.5 SE 13 20 7 11 1006.0 1006.0 7.4
14/09:30pm 19.9 20.0 17.5 86 1.5 SE 13 24 7 13 1005.5 1005.5 7.4
14/09:00pm 20.2 20.1 17.8 86 1.5 SE 15 26 8 14 1005.2 1005.2 7.4
14/08:30pm 20.3 20.3 18.1 87 1.4 SE 15 20 8 11 1005.0 1005.0 7.4
14/08:00pm 20.1 20.6 17.5 85 1.6 SE 11 17 6 9 1004.9 1004.9 7.4
14/07:30pm 20.9 21.5 17.7 82 2.0 SE 11 19 6 10 1004.3 1004.3 7.4
14/07:00pm 20.7 20.5 17.7 83 1.9 SE 15 22 8 12 1003.8 1003.8 7.4
14/06:30pm 21.0 20.1 17.8 82 2.0 ESE 19 33 10 18 1003.4 1003.4 7.4
14/06:00pm 21.3 20.5 17.9 81 2.1 SE 19 35 10 19 1003.2 1003.2 7.4
14/05:30pm 21.2 20.8 18.0 82 2.0 SE 17 32 9 17 1003.2 1003.2 7.4
14/05:00pm 21.2 20.1 17.8 81 2.1 SE 20 33 11 18 1003.5 1003.5 7.4
14/04:30pm 21.2 20.8 18.0 82 2.0 SE 17 28 9 15 1003.5 1003.5 7.4
14/04:00pm 21.1 20.1 17.9 82 2.0 SE 20 35 11 19 1003.7 1003.7 7.4
14/03:30pm 21.4 20.1 18.2 82 2.0 SE 22 39 12 21 1003.8 1003.8 7.4
14/03:00pm 22.2 22.9 19.7 86 1.6 SSE 15 32 8 17 1003.2 1003.2 7.4
14/02:30pm 19.2 19.7 17.5 90 1.0 SW 11 17 6 9 1004.1 1004.1 7.4
14/02:00pm 18.9 18.9 17.2 90 1.0 SSW 13 19 7 10 1004.4 1004.4 7.4
14/01:30pm 19.6 19.8 17.7 89 1.2 SSW 13 22 7 12 1004.2 1004.2 7.2
14/01:00pm 20.1 21.9 18.2 89 1.2 SW 6 7 3 4 1004.0 1004.0 7.2
14/12:30pm 19.2 20.0 17.3 89 1.2 W 9 13 5 7 1003.9 1003.9 7.2
14/12:00pm 18.2 19.1 16.5 90 1.0 WNW 7 11 4 6 1003.8 1003.8 7.2
14/11:30am 17.9 18.3 16.4 91 0.9 WNW 9 13 5 7 1004.2 1004.2 7.2
14/11:00am 17.4 17.3 15.9 91 0.9 NNW 11 20 6 11 1004.0 1004.0 6.6
14/10:30am 17.6 17.8 15.8 89 1.1 NE 9 24 5 13 1003.8 1003.8 5.0
14/10:00am 19.3 20.9 17.8 91 0.9 SE 6 11 3 6 1003.5 1003.5 0.0
14/09:30am 19.3 20.9 17.8 91 0.9 SE 6 9 3 5 1003.4 1003.4 0.0
14/09:00am 19.4 21.0 17.9 91 0.9 SSE 6 11 3 6 1002.6 1002.6 10.8
14/08:30am 19.0 19.1 17.5 91 0.9 SE 13 19 7 10 1002.9 1002.9 10.8
14/08:00am 18.8 19.7 17.5 92 0.8 SE 9 15 5 8 1002.5 1002.5 10.8
14/07:30am 18.6 18.9 17.1 91 0.9 ESE 11 19 6 10 1002.4 1002.4 10.8
14/07:00am 18.4 19.4 16.9 91 0.9 SSE 7 17 4 9 1001.5 1001.5 10.8
14/06:30am 18.1 18.2 16.6 91 0.9 SSE 11 17 6 9 1001.1 1001.1 10.8
14/06:00am 17.8 18.8 16.3 91 0.9 SE 6 7 3 4 1001.0 1001.0 10.8
14/05:30am 17.0 18.7 15.3 90 1.0 CALM 0 0 0 0 1001.0 1001.0 10.8
14/05:00am 17.3 18.8 15.6 90 1.0 ENE 2 6 1 3 1000.7 1000.7 10.8
14/04:30am 17.2 19.0 15.5 90 1.0 CALM 0 4 0 2 1000.5 1000.5 10.8
14/04:00am 16.5 17.7 14.9 90 0.9 NNE 2 2 1 1 1000.3 1000.3 10.8
14/03:30am 16.8 18.1 15.2 90 0.9 NNE 2 4 1 2 1000.0 1000.0 10.8
14/03:00am 17.1 18.1 15.4 90 1.0 ENE 4 4 2 2 999.9 999.9 10.8
14/02:30am 17.2 18.6 15.5 90 1.0 NE 2 7 1 4 999.8 999.8 10.8
14/02:00am 15.9 15.9 14.1 89 1.0 N 7 9 4 5 999.1 999.1 10.8
14/01:30am 16.7 17.7 14.3 86 1.4 NE 2 4 1 2 998.4 998.4 10.8
14/01:00am 18.2 18.9 16.0 87 1.3 ENE 7 11 4 6 998.1 998.1 10.8
14/12:30am 18.3 19.1 16.3 88 1.2 E 7 13 4 7 997.8 997.8 10.8
14/12:00am 17.7 18.6 16.0 90 1.0 ESE 6 11 3 6 997.6 997.6 10.8
 
Date/Time
EDT
Temp
°C
App
Temp
°C
Dew
Point
°C
Rel
Hum
%
Delta-T
°C
Wind Press
QNH
hPa
Press
MSL
hPa
Rain since
9am
mm
Dir  Spd
km/h
Gust
km/h
Spd
kts
Gust
kts
13/11:30pm 17.3 18.8 15.8 91 0.9 SSW 2 4 1 2 997.1 997.1 10.8
13/11:00pm 17.6 19.3 16.1 91 0.9 SSW 2 6 1 3 997.3 997.3 10.8
13/10:30pm 17.5 17.8 16.0 91 0.9 S 9 13 5 7 997.4 997.4 10.8
13/10:00pm 17.6 18.5 16.1 91 0.9 WNW 6 9 3 5 997.7 997.7 10.8
13/09:30pm 17.3 18.0 15.6 90 1.0 SE 6 7 3 4 996.5 996.5 10.8

Other Formats:

Comma delimited format used in spreadsheet applications
http://www.bom.gov.au/fwo/IDV60801/IDV60801.94898.axf

JavaScript Object Notation format (JSON) in row-major order
http://www.bom.gov.au/fwo/IDV60801/IDV60801.94898.json